createdAt,value
2018-03-16T00:00:51.127Z,4.30
2018-03-16T00:01:53.639Z,4.20
2018-03-16T00:02:56.165Z,4.20
2018-03-16T00:03:58.679Z,4.20
2018-03-16T00:05:01.312Z,4.10
2018-03-16T00:06:03.801Z,4.10
2018-03-16T00:07:07.081Z,4.10
2018-03-16T00:08:09.624Z,4.00
2018-03-16T00:09:12.114Z,4.10
2018-03-16T00:10:14.617Z,4.00
2018-03-16T00:11:17.215Z,4.00
2018-03-16T00:12:19.764Z,4.00
2018-03-16T00:13:22.274Z,4.00
2018-03-16T00:14:25.494Z,4.00
2018-03-16T00:15:28.000Z,4.00
2018-03-16T00:16:30.526Z,4.00
2018-03-16T00:17:33.030Z,4.00
2018-03-16T00:18:35.550Z,4.00
2018-03-16T00:19:38.067Z,3.90
2018-03-16T00:20:41.344Z,3.90
2018-03-16T00:21:43.837Z,3.90
2018-03-16T00:22:47.100Z,3.90
2018-03-16T00:23:49.606Z,3.90
2018-03-16T00:24:52.112Z,3.90
2018-03-16T00:25:54.626Z,3.90
2018-03-16T00:26:57.880Z,3.80
2018-03-16T00:28:00.396Z,3.80
2018-03-16T00:29:02.954Z,3.80
2018-03-16T00:30:06.262Z,3.80
2018-03-16T00:31:08.770Z,3.80
2018-03-16T00:32:11.289Z,3.80
2018-03-16T00:33:14.548Z,3.80
2018-03-16T00:34:17.048Z,3.70
2018-03-16T00:35:20.380Z,3.70
2018-03-16T00:36:22.866Z,3.70
2018-03-16T00:37:25.368Z,3.70
2018-03-16T00:38:28.639Z,3.70
2018-03-16T00:39:31.168Z,3.70
2018-03-16T00:40:33.657Z,3.70
2018-03-16T00:41:36.346Z,3.80
2018-03-16T00:42:38.843Z,3.70
2018-03-16T00:43:42.113Z,3.70
2018-03-16T00:44:44.621Z,3.70
2018-03-16T00:45:47.130Z,3.70
2018-03-16T00:46:49.644Z,3.70
2018-03-16T00:47:52.952Z,3.70
2018-03-16T00:48:55.446Z,3.70
2018-03-16T00:49:57.967Z,3.70
2018-03-16T00:51:01.247Z,3.70
2018-03-16T00:52:03.760Z,3.70
2018-03-16T00:53:06.320Z,3.70
2018-03-16T00:54:08.827Z,3.70
2018-03-16T00:55:11.795Z,3.70
2018-03-16T00:56:14.284Z,3.70
2018-03-16T00:57:16.791Z,3.70
2018-03-16T00:58:20.071Z,3.70
2018-03-16T00:59:23.853Z,3.70
2018-03-16T01:00:26.907Z,3.70
2018-03-16T01:01:29.413Z,3.70
2018-03-16T01:02:31.944Z,3.70
2018-03-16T01:03:34.439Z,3.70
2018-03-16T01:04:36.940Z,3.70
2018-03-16T01:05:39.450Z,3.70
2018-03-16T01:06:41.967Z,3.70
2018-03-16T01:07:45.298Z,3.70
2018-03-16T01:08:47.787Z,3.70
2018-03-16T01:09:50.284Z,3.70
2018-03-16T01:10:52.783Z,3.70
2018-03-16T01:11:56.073Z,3.70
2018-03-16T01:12:59.341Z,3.70
2018-03-16T01:14:01.862Z,3.70
2018-03-16T01:15:04.388Z,3.70
2018-03-16T01:16:06.874Z,3.70
2018-03-16T01:17:10.177Z,3.70
2018-03-16T01:18:12.666Z,3.70
2018-03-16T01:19:15.242Z,3.70
2018-03-16T01:20:17.726Z,3.60
2018-03-16T01:21:20.225Z,3.70
2018-03-16T01:22:22.738Z,3.70
2018-03-16T01:23:25.264Z,3.60
2018-03-16T01:24:28.338Z,3.70
2018-03-16T01:25:30.827Z,3.60
2018-03-16T01:26:33.362Z,3.70
2018-03-16T01:27:35.878Z,3.60
2018-03-16T01:28:38.371Z,3.60
2018-03-16T01:29:40.863Z,3.70
2018-03-16T01:30:43.358Z,3.70
2018-03-16T01:31:45.888Z,3.60
2018-03-16T01:32:48.408Z,3.60
2018-03-16T01:33:50.957Z,3.60
2018-03-16T01:34:53.455Z,3.70
2018-03-16T01:35:55.956Z,3.70
2018-03-16T01:36:58.487Z,3.70
2018-03-16T01:38:00.987Z,3.60
2018-03-16T01:39:04.273Z,3.60
2018-03-16T01:40:07.529Z,3.60
2018-03-16T01:41:10.084Z,3.60
2018-03-16T01:42:12.651Z,3.60
2018-03-16T01:43:15.153Z,3.70
2018-03-16T01:44:17.664Z,3.60
2018-03-16T01:45:20.162Z,3.60
2018-03-16T01:46:22.666Z,3.70
2018-03-16T01:47:26.281Z,3.60
2018-03-16T01:48:29.560Z,3.60
2018-03-16T01:49:32.878Z,3.60
2018-03-16T01:50:35.376Z,3.60
2018-03-16T01:51:37.864Z,3.70
2018-03-16T01:52:40.379Z,3.60
2018-03-16T01:53:42.902Z,3.60
2018-03-16T01:54:45.397Z,3.60
2018-03-16T01:55:48.658Z,3.60
2018-03-16T01:56:51.159Z,3.60
2018-03-16T01:57:54.428Z,3.70
2018-03-16T01:58:56.935Z,3.60
2018-03-16T01:59:59.432Z,3.70
2018-03-16T02:01:01.923Z,3.60
2018-03-16T02:02:05.199Z,3.60
2018-03-16T02:03:07.700Z,3.60
2018-03-16T02:04:10.224Z,3.60
2018-03-16T02:05:12.722Z,3.60
2018-03-16T02:06:15.212Z,3.60
2018-03-16T02:07:17.739Z,3.60
2018-03-16T02:08:20.235Z,3.60
2018-03-16T02:09:23.533Z,3.60
2018-03-16T02:10:26.058Z,3.60
2018-03-16T02:11:28.563Z,3.60
2018-03-16T02:12:31.067Z,3.60
2018-03-16T02:13:34.338Z,3.60
2018-03-16T02:14:36.849Z,3.60
2018-03-16T02:15:39.367Z,3.60
2018-03-16T02:16:41.884Z,3.60
2018-03-16T02:17:44.383Z,3.60
2018-03-16T02:18:46.879Z,3.60
2018-03-16T02:19:49.380Z,3.60
2018-03-16T02:20:52.653Z,3.60
2018-03-16T02:21:55.151Z,3.60
2018-03-16T02:22:57.660Z,3.60
2018-03-16T02:24:00.212Z,3.60
2018-03-16T02:25:02.706Z,3.60
2018-03-16T02:26:05.240Z,3.60
2018-03-16T02:27:07.756Z,3.60
2018-03-16T02:28:10.260Z,3.60
2018-03-16T02:29:13.532Z,3.60
2018-03-16T02:30:16.040Z,3.60
2018-03-16T02:31:18.586Z,3.60
2018-03-16T02:32:21.105Z,3.60
2018-03-16T02:33:23.613Z,3.70
2018-03-16T02:34:26.105Z,3.70
2018-03-16T02:35:29.405Z,3.60
2018-03-16T02:36:31.946Z,3.60
2018-03-16T02:37:34.450Z,3.60
2018-03-16T02:38:36.955Z,3.60
2018-03-16T02:39:39.452Z,3.60
2018-03-16T02:40:41.949Z,3.60
2018-03-16T02:41:45.217Z,3.60
2018-03-16T02:42:47.719Z,3.60
2018-03-16T02:43:50.235Z,3.60
2018-03-16T02:44:52.749Z,3.60
2018-03-16T02:45:56.035Z,3.60
2018-03-16T02:46:59.290Z,3.60
2018-03-16T02:48:01.811Z,3.60
2018-03-16T02:49:04.298Z,3.60
2018-03-16T02:50:06.803Z,3.60
2018-03-16T02:51:09.308Z,3.70
2018-03-16T02:52:12.668Z,3.70
2018-03-16T02:53:15.163Z,3.70
2018-03-16T02:54:18.443Z,3.60
2018-03-16T02:55:21.709Z,3.60
2018-03-16T02:56:24.232Z,3.60
2018-03-16T02:57:26.735Z,3.60
2018-03-16T02:58:29.299Z,3.60
2018-03-16T02:59:31.807Z,3.70
2018-03-16T03:00:34.322Z,3.60
2018-03-16T03:01:36.838Z,3.60
2018-03-16T03:02:40.128Z,3.60
2018-03-16T03:03:42.647Z,3.60
2018-03-16T03:04:45.149Z,3.60
2018-03-16T03:05:47.660Z,3.60
2018-03-16T03:06:50.969Z,3.60
2018-03-16T03:07:53.465Z,3.60
2018-03-16T03:08:55.962Z,3.60
2018-03-16T03:09:58.462Z,3.60
2018-03-16T03:11:01.773Z,3.60
2018-03-16T03:12:04.269Z,3.60
2018-03-16T03:13:06.762Z,3.60
2018-03-16T03:14:09.250Z,3.60
2018-03-16T03:15:11.759Z,3.60
2018-03-16T03:16:14.252Z,3.60
2018-03-16T03:17:16.747Z,3.60
2018-03-16T03:18:19.276Z,3.60
2018-03-16T03:19:21.782Z,3.60
2018-03-16T03:20:24.315Z,3.60
2018-03-16T03:21:26.818Z,3.60
2018-03-16T03:22:29.310Z,3.60
2018-03-16T03:23:31.822Z,3.60
2018-03-16T03:24:34.322Z,3.60
2018-03-16T03:25:36.858Z,3.60
2018-03-16T03:26:39.389Z,3.60
2018-03-16T03:27:41.958Z,3.60
2018-03-16T03:28:44.462Z,3.60
2018-03-16T03:29:47.010Z,3.60
2018-03-16T03:30:49.511Z,3.70
2018-03-16T03:31:52.003Z,3.60
2018-03-16T03:32:54.513Z,3.60
2018-03-16T03:33:57.014Z,3.60
2018-03-16T03:34:59.550Z,3.60
2018-03-16T03:36:02.042Z,3.60
2018-03-16T03:37:05.302Z,3.60
2018-03-16T03:38:07.799Z,3.60
2018-03-16T03:39:10.310Z,3.60
2018-03-16T03:40:12.823Z,3.60
2018-03-16T03:41:15.328Z,3.60
2018-03-16T03:42:17.838Z,3.60
2018-03-16T03:43:20.385Z,3.60
2018-03-16T03:44:22.903Z,3.60
2018-03-16T03:45:25.394Z,3.60
2018-03-16T03:46:28.669Z,3.60
2018-03-16T03:47:31.169Z,3.60
2018-03-16T03:48:33.722Z,3.60
2018-03-16T03:49:37.001Z,3.60
2018-03-16T03:50:39.528Z,3.50
2018-03-16T03:51:42.626Z,3.60
2018-03-16T03:52:45.126Z,3.60
2018-03-16T03:53:48.412Z,3.50
2018-03-16T03:54:50.963Z,3.50
2018-03-16T03:55:53.465Z,3.50
2018-03-16T03:56:56.740Z,3.60
2018-03-16T03:57:59.237Z,3.50
2018-03-16T03:59:02.521Z,3.50
2018-03-16T04:00:05.788Z,3.50
2018-03-16T04:01:08.314Z,3.50
2018-03-16T04:02:10.844Z,3.50
2018-03-16T04:03:14.107Z,3.60
2018-03-16T04:04:16.606Z,3.50
2018-03-16T04:05:19.919Z,3.50
2018-03-16T04:06:22.439Z,3.50
2018-03-16T04:07:24.947Z,3.50
2018-03-16T04:08:27.441Z,3.50
2018-03-16T04:09:31.571Z,3.60
2018-03-16T04:10:34.093Z,3.60
2018-03-16T04:11:37.357Z,3.60
2018-03-16T04:12:40.646Z,3.50
2018-03-16T04:13:43.159Z,3.50
2018-03-16T04:14:45.685Z,3.50
2018-03-16T04:15:48.184Z,3.50
2018-03-16T04:16:51.463Z,3.50
2018-03-16T04:17:53.951Z,3.50
2018-03-16T04:18:56.456Z,3.50
2018-03-16T04:19:58.992Z,3.50
2018-03-16T04:21:02.256Z,3.50
2018-03-16T04:22:04.769Z,3.50
2018-03-16T04:23:07.278Z,3.50
2018-03-16T04:24:09.853Z,3.50
2018-03-16T04:25:12.374Z,3.50
2018-03-16T04:26:14.885Z,3.50
2018-03-16T04:27:17.380Z,3.50
2018-03-16T04:28:19.874Z,3.50
2018-03-16T04:29:22.375Z,3.50
2018-03-16T04:30:24.894Z,3.50
2018-03-16T04:31:28.163Z,3.50
2018-03-16T04:32:30.688Z,3.50
2018-03-16T04:33:33.190Z,3.50
2018-03-16T04:34:35.679Z,3.50
2018-03-16T04:35:38.202Z,3.50
2018-03-16T04:36:40.702Z,3.50
2018-03-16T04:37:43.203Z,3.40
2018-03-16T04:38:45.700Z,3.50
2018-03-16T04:39:48.207Z,3.50
2018-03-16T04:40:51.290Z,3.50
2018-03-16T04:41:53.784Z,3.50
2018-03-16T04:42:56.320Z,3.50
2018-03-16T04:43:58.813Z,3.50
2018-03-16T04:45:01.319Z,3.50
2018-03-16T04:46:04.589Z,3.50
2018-03-16T04:47:07.098Z,3.50
2018-03-16T04:48:09.618Z,3.50
2018-03-16T04:49:12.133Z,3.50
2018-03-16T04:50:14.637Z,3.50
2018-03-16T04:51:17.144Z,3.50
2018-03-16T04:52:19.658Z,3.50
2018-03-16T04:53:22.165Z,3.50
2018-03-16T04:54:24.686Z,3.50
2018-03-16T04:55:27.523Z,3.50
2018-03-16T04:56:30.031Z,3.50
2018-03-16T04:57:33.302Z,3.50
2018-03-16T04:58:36.569Z,3.50
2018-03-16T04:59:39.078Z,3.40
2018-03-16T05:00:41.584Z,3.50
2018-03-16T05:01:44.100Z,3.40
2018-03-16T05:02:47.380Z,3.40
2018-03-16T05:03:49.893Z,3.50
2018-03-16T05:04:52.419Z,3.40
2018-03-16T05:05:54.913Z,3.40
2018-03-16T05:06:58.277Z,3.40
2018-03-16T05:08:00.783Z,3.40
2018-03-16T05:09:03.291Z,3.40
2018-03-16T05:10:05.795Z,3.40
2018-03-16T05:11:09.063Z,3.40
2018-03-16T05:12:11.640Z,3.40
2018-03-16T05:13:14.149Z,3.40
2018-03-16T05:14:16.652Z,3.40
2018-03-16T05:15:19.169Z,3.40
2018-03-16T05:16:21.709Z,3.40
2018-03-16T05:17:24.214Z,3.40
2018-03-16T05:18:26.784Z,3.40
2018-03-16T05:19:29.298Z,3.40
2018-03-16T05:20:31.811Z,3.30
2018-03-16T05:21:34.345Z,3.40
2018-03-16T05:22:36.875Z,3.30
2018-03-16T05:23:40.152Z,3.30
2018-03-16T05:24:46.593Z,3.30
2018-03-16T05:25:49.105Z,3.30
2018-03-16T05:26:52.618Z,3.30
2018-03-16T05:27:55.181Z,3.30
2018-03-16T05:28:58.456Z,3.30
2018-03-16T05:30:01.739Z,3.30
2018-03-16T05:31:04.241Z,3.30
2018-03-16T05:32:06.741Z,3.30
2018-03-16T05:33:09.259Z,3.30
2018-03-16T05:34:12.591Z,3.30
2018-03-16T05:35:15.126Z,3.30
2018-03-16T05:36:18.394Z,3.30
2018-03-16T05:37:20.909Z,3.30
2018-03-16T05:38:23.505Z,3.30
2018-03-16T05:39:26.015Z,3.30
2018-03-16T05:40:28.537Z,3.30
2018-03-16T05:41:31.042Z,3.20
2018-03-16T05:42:34.322Z,3.30
2018-03-16T05:43:36.938Z,3.30
2018-03-16T05:44:39.435Z,3.20
2018-03-16T05:45:41.969Z,3.20
2018-03-16T05:46:44.485Z,3.30
2018-03-16T05:47:47.039Z,3.20
2018-03-16T05:48:49.568Z,3.20
2018-03-16T05:49:52.876Z,3.20
2018-03-16T05:50:55.435Z,3.20
2018-03-16T05:51:58.017Z,3.20
2018-03-16T05:53:00.622Z,3.20
2018-03-16T05:54:03.118Z,3.20
2018-03-16T05:55:07.136Z,3.20
2018-03-16T05:56:10.434Z,3.20
2018-03-16T05:57:13.713Z,3.20
2018-03-16T05:58:17.010Z,3.20
2018-03-16T05:59:20.314Z,3.20
2018-03-16T06:00:22.814Z,3.20
2018-03-16T06:01:26.076Z,3.20
2018-03-16T06:02:28.591Z,3.20
2018-03-16T06:03:31.112Z,3.20
2018-03-16T06:04:33.674Z,3.20
2018-03-16T06:05:36.942Z,3.20
2018-03-16T06:06:39.462Z,3.20
2018-03-16T06:07:41.974Z,3.20
2018-03-16T06:08:44.476Z,3.20
2018-03-16T06:09:46.972Z,3.20
2018-03-16T06:10:49.464Z,3.20
2018-03-16T06:11:52.014Z,3.10
2018-03-16T06:12:54.533Z,3.10
2018-03-16T06:13:57.093Z,3.10
2018-03-16T06:14:59.620Z,3.10
2018-03-16T06:16:02.126Z,3.10
2018-03-16T06:17:04.661Z,3.10
2018-03-16T06:18:07.178Z,3.10
2018-03-16T06:19:09.690Z,3.10
2018-03-16T06:20:12.205Z,3.10
2018-03-16T06:21:14.708Z,3.10
2018-03-16T06:22:18.023Z,3.10
2018-03-16T06:23:20.549Z,3.00
2018-03-16T06:24:23.776Z,3.10
2018-03-16T06:25:26.269Z,3.10
2018-03-16T06:26:28.832Z,3.10
2018-03-16T06:27:31.450Z,3.00
2018-03-16T06:28:38.219Z,3.00
2018-03-16T06:29:40.727Z,3.00
2018-03-16T06:30:43.995Z,2.90
2018-03-16T06:31:48.211Z,2.90
2018-03-16T06:32:54.975Z,2.90
2018-03-16T06:33:57.490Z,3.00
2018-03-16T06:34:59.990Z,2.90
2018-03-16T06:36:03.260Z,3.00
2018-03-16T06:37:05.760Z,3.00
2018-03-16T06:38:09.708Z,2.90
2018-03-16T06:39:12.219Z,2.90
2018-03-16T06:40:14.856Z,2.90
2018-03-16T06:41:17.375Z,2.90
2018-03-16T06:42:20.658Z,2.90
2018-03-16T06:43:23.185Z,3.00
2018-03-16T06:44:25.758Z,3.00
2018-03-16T06:45:29.027Z,3.00
2018-03-16T06:46:32.304Z,2.90
2018-03-16T06:47:34.819Z,3.00
2018-03-16T06:48:37.918Z,3.00
2018-03-16T06:49:40.411Z,3.00
2018-03-16T06:50:42.907Z,3.00
2018-03-16T06:51:46.176Z,2.90
2018-03-16T06:52:48.695Z,2.90
2018-03-16T06:53:51.212Z,2.90
2018-03-16T06:54:53.772Z,2.90
2018-03-16T06:55:56.267Z,2.90
2018-03-16T06:56:59.533Z,2.90
2018-03-16T06:58:02.822Z,2.90
2018-03-16T06:59:06.019Z,2.80
2018-03-16T07:00:08.517Z,2.90
2018-03-16T07:01:11.946Z,2.90
2018-03-16T07:02:14.455Z,2.90
2018-03-16T07:03:17.765Z,2.90
2018-03-16T07:04:21.052Z,2.90
2018-03-16T07:05:24.436Z,3.00
2018-03-16T07:06:27.716Z,3.00
2018-03-16T07:07:30.210Z,3.00
2018-03-16T07:08:32.762Z,3.00
2018-03-16T07:09:35.249Z,3.00
2018-03-16T07:10:38.522Z,3.00
2018-03-16T07:11:41.792Z,3.10
2018-03-16T07:12:44.298Z,3.00
2018-03-16T07:13:46.802Z,3.00
2018-03-16T07:14:49.314Z,3.10
2018-03-16T07:15:52.595Z,3.10
2018-03-16T07:16:55.097Z,3.00
2018-03-16T07:17:58.391Z,3.00
2018-03-16T07:19:01.692Z,3.00
2018-03-16T07:20:04.209Z,3.00
2018-03-16T07:21:06.714Z,3.00
2018-03-16T07:22:10.034Z,3.00
2018-03-16T07:23:13.338Z,3.00
2018-03-16T07:24:15.852Z,3.00
2018-03-16T07:25:19.975Z,3.00
2018-03-16T07:26:22.495Z,3.00
2018-03-16T07:27:25.010Z,3.10
2018-03-16T07:28:27.555Z,3.10
2018-03-16T07:29:30.058Z,3.10
2018-03-16T07:30:32.577Z,3.10
2018-03-16T07:31:35.102Z,3.10
2018-03-16T07:32:37.637Z,3.20
2018-03-16T07:33:40.138Z,3.10
2018-03-16T07:34:43.409Z,3.10
2018-03-16T07:35:46.711Z,3.00
2018-03-16T07:36:49.993Z,3.10
2018-03-16T07:37:53.262Z,3.10
2018-03-16T07:38:55.756Z,3.10
2018-03-16T07:39:59.038Z,3.10
2018-03-16T07:41:02.427Z,3.00
2018-03-16T07:42:05.692Z,3.00
2018-03-16T07:43:08.203Z,3.00
2018-03-16T07:44:10.732Z,3.00
2018-03-16T07:45:13.284Z,3.00
2018-03-16T07:46:16.600Z,3.00
2018-03-16T07:47:19.109Z,2.90
2018-03-16T07:48:21.693Z,2.90
2018-03-16T07:49:24.206Z,2.90
2018-03-16T07:50:26.748Z,2.90
2018-03-16T07:51:29.249Z,2.90
2018-03-16T07:52:31.751Z,2.90
2018-03-16T07:53:35.470Z,2.80
2018-03-16T07:54:37.975Z,2.80
2018-03-16T07:55:40.485Z,2.80
2018-03-16T07:56:43.772Z,2.90
2018-03-16T07:57:47.416Z,2.80
2018-03-16T07:58:49.924Z,2.80
2018-03-16T07:59:52.423Z,2.80
2018-03-16T08:00:55.704Z,2.90
2018-03-16T08:01:58.973Z,2.90
2018-03-16T08:03:01.478Z,2.80
2018-03-16T08:04:03.975Z,2.90
2018-03-16T08:05:06.471Z,2.90
2018-03-16T08:06:08.972Z,2.90
2018-03-16T08:07:13.195Z,3.00
2018-03-16T08:08:15.692Z,3.00
2018-03-16T08:09:18.195Z,2.90
2018-03-16T08:10:22.217Z,3.00
2018-03-16T08:11:25.515Z,3.00
2018-03-16T08:12:28.800Z,3.00
2018-03-16T08:13:32.080Z,3.00
2018-03-16T08:14:34.580Z,3.00
2018-03-16T08:15:37.069Z,3.00
2018-03-16T08:16:39.603Z,3.00
2018-03-16T08:17:42.874Z,3.10
2018-03-16T08:18:46.157Z,3.10
2018-03-16T08:19:49.420Z,3.10
2018-03-16T08:20:52.011Z,3.10
2018-03-16T08:21:54.533Z,3.10
2018-03-16T08:22:57.024Z,3.00
2018-03-16T08:23:59.548Z,3.00
2018-03-16T08:25:02.852Z,3.00
2018-03-16T08:26:05.380Z,3.00
2018-03-16T08:27:07.875Z,3.00
2018-03-16T08:28:11.357Z,3.00
2018-03-16T08:29:13.809Z,3.00
2018-03-16T08:30:16.300Z,3.00
2018-03-16T08:31:18.808Z,3.00
2018-03-16T08:32:21.334Z,3.00
2018-03-16T08:33:23.849Z,3.00
2018-03-16T08:34:26.344Z,3.00
2018-03-16T08:35:28.850Z,2.90
2018-03-16T08:36:31.347Z,2.90
2018-03-16T08:37:33.865Z,2.90
2018-03-16T08:38:36.357Z,2.90
2018-03-16T08:39:38.844Z,2.90
2018-03-16T08:40:42.115Z,2.90
2018-03-16T08:41:44.633Z,2.90
2018-03-16T08:42:47.159Z,3.00
2018-03-16T08:43:49.766Z,2.90
2018-03-16T08:44:52.258Z,2.80
2018-03-16T08:45:54.791Z,2.80
2018-03-16T08:46:57.307Z,2.80
2018-03-16T08:47:59.806Z,2.80
2018-03-16T08:49:02.309Z,2.80
2018-03-16T08:50:04.817Z,2.80
2018-03-16T08:51:07.352Z,2.80
2018-03-16T08:52:10.686Z,2.80
2018-03-16T08:53:13.277Z,2.80
2018-03-16T08:54:15.799Z,2.80
2018-03-16T08:55:18.284Z,2.80
2018-03-16T08:56:20.805Z,2.70
2018-03-16T08:57:24.075Z,2.70
2018-03-16T08:58:26.689Z,2.70
2018-03-16T08:59:29.196Z,2.80
2018-03-16T09:00:31.704Z,2.80
2018-03-16T09:01:34.967Z,2.80
2018-03-16T09:02:37.494Z,2.80
2018-03-16T09:03:40.005Z,2.80
2018-03-16T09:04:42.501Z,2.80
2018-03-16T09:05:45.779Z,2.80
2018-03-16T09:06:48.281Z,2.80
2018-03-16T09:07:50.826Z,2.90
2018-03-16T09:08:54.101Z,2.80
2018-03-16T09:09:56.612Z,2.80
2018-03-16T09:10:59.115Z,2.80
2018-03-16T09:12:01.622Z,2.80
2018-03-16T09:13:04.916Z,2.90
2018-03-16T09:14:07.472Z,2.90
2018-03-16T09:15:10.089Z,2.90
2018-03-16T09:16:12.702Z,2.90
2018-03-16T09:17:15.233Z,3.00
2018-03-16T09:18:17.737Z,2.90
2018-03-16T09:19:20.284Z,3.00
2018-03-16T09:20:22.798Z,3.00
2018-03-16T09:21:25.331Z,3.00
2018-03-16T09:22:27.853Z,3.00
2018-03-16T09:23:30.345Z,3.00
2018-03-16T09:24:33.762Z,3.00
2018-03-16T09:25:37.454Z,2.90
2018-03-16T09:26:40.017Z,2.90
2018-03-16T09:27:42.554Z,2.90
2018-03-16T09:28:45.048Z,2.90
2018-03-16T09:29:48.393Z,2.80
2018-03-16T09:30:50.899Z,2.80
2018-03-16T09:31:54.201Z,2.80
2018-03-16T09:32:56.718Z,2.80
2018-03-16T09:33:59.250Z,2.80
2018-03-16T09:35:01.752Z,2.70
2018-03-16T09:36:04.259Z,2.70
2018-03-16T09:37:07.551Z,2.70
2018-03-16T09:38:10.900Z,2.70
2018-03-16T09:39:13.453Z,2.70
2018-03-16T09:40:15.991Z,2.70
2018-03-16T09:41:19.299Z,2.70
2018-03-16T09:42:21.815Z,2.70
2018-03-16T09:43:25.134Z,2.70
2018-03-16T09:44:27.649Z,2.70
2018-03-16T09:45:30.138Z,2.70
2018-03-16T09:46:32.636Z,2.70
2018-03-16T09:47:35.888Z,2.70
2018-03-16T09:48:38.392Z,2.70
2018-03-16T09:49:40.896Z,2.70
2018-03-16T09:50:43.394Z,2.70
2018-03-16T09:51:45.896Z,2.70
2018-03-16T09:52:49.196Z,2.70
2018-03-16T09:53:51.707Z,2.70
2018-03-16T09:55:06.089Z,2.60
2018-03-16T09:56:08.579Z,2.70
2018-03-16T09:57:11.704Z,2.70
2018-03-16T09:58:14.878Z,2.70
2018-03-16T09:59:18.162Z,2.70
2018-03-16T10:00:21.434Z,2.70
2018-03-16T10:01:23.925Z,2.70
2018-03-16T10:02:27.893Z,2.80
2018-03-16T10:03:30.409Z,2.80
2018-03-16T10:04:33.688Z,2.70
2018-03-16T10:05:36.960Z,2.70
2018-03-16T10:06:39.455Z,2.80
2018-03-16T10:07:42.719Z,2.80
2018-03-16T10:08:45.987Z,2.80
2018-03-16T10:22:53.520Z,2.80
2018-03-16T10:23:56.026Z,2.30
2018-03-16T10:24:59.275Z,2.20
2018-03-16T10:26:02.759Z,2.30
2018-03-16T10:27:05.274Z,2.20
2018-03-16T10:28:08.554Z,2.20
2018-03-16T10:29:11.154Z,2.20
2018-03-16T10:30:13.746Z,2.20
2018-03-16T10:31:16.248Z,2.20
2018-03-16T10:32:18.748Z,2.20
2018-03-16T10:33:22.026Z,2.30
2018-03-16T10:34:24.542Z,2.20
2018-03-16T10:35:27.068Z,2.30
2018-03-16T10:36:30.613Z,2.30
2018-03-16T10:37:33.092Z,2.30
2018-03-16T10:38:36.356Z,2.20
2018-03-16T10:39:38.872Z,2.30
2018-03-16T10:40:41.387Z,2.30
2018-03-16T10:41:44.680Z,2.30
2018-03-16T10:42:47.188Z,2.40
2018-03-16T10:43:49.689Z,2.40
2018-03-16T10:44:52.204Z,2.40
2018-03-16T10:45:54.708Z,2.30
2018-03-16T10:46:57.226Z,2.40
2018-03-16T10:47:59.735Z,2.40
2018-03-16T10:49:02.282Z,2.50
2018-03-16T10:50:05.505Z,2.30
2018-03-16T10:51:08.007Z,2.30
2018-03-16T10:52:10.686Z,2.30
2018-03-16T10:53:13.968Z,2.30
2018-03-16T10:54:17.395Z,2.30
2018-03-16T10:55:20.639Z,2.30
2018-03-16T10:56:23.142Z,2.30
2018-03-16T10:57:25.658Z,2.30
2018-03-16T10:58:28.157Z,2.30
2018-03-16T10:59:31.439Z,2.40
2018-03-16T11:00:39.735Z,2.40
2018-03-16T11:01:48.677Z,2.40
2018-03-16T11:02:51.941Z,2.40
2018-03-16T11:03:54.458Z,2.40
2018-03-16T11:05:02.753Z,2.40
2018-03-16T11:06:06.028Z,2.40
2018-03-16T11:07:08.547Z,2.40
2018-03-16T11:08:11.164Z,2.50
2018-03-16T11:09:13.720Z,2.40
2018-03-16T11:10:16.355Z,2.40
2018-03-16T11:11:18.860Z,2.30
2018-03-16T11:12:21.364Z,2.40
2018-03-16T11:13:24.622Z,2.40
2018-03-16T11:14:27.127Z,2.40
2018-03-16T11:15:30.462Z,2.40
2018-03-16T11:16:32.979Z,2.40
2018-03-16T11:17:36.259Z,2.40
2018-03-16T11:18:38.879Z,2.40
2018-03-16T11:19:41.388Z,2.40
2018-03-16T11:20:43.909Z,2.40
2018-03-16T11:21:46.412Z,2.30
2018-03-16T11:22:48.923Z,2.40
2018-03-16T11:23:52.247Z,2.30
2018-03-16T11:24:54.775Z,2.30
2018-03-16T11:25:57.324Z,2.40
2018-03-16T11:26:59.844Z,2.40
2018-03-16T11:28:02.346Z,2.30
2018-03-16T11:29:04.852Z,2.30
2018-03-16T11:30:07.373Z,2.30
2018-03-16T11:31:10.369Z,2.30
2018-03-16T11:32:12.943Z,2.40
2018-03-16T11:33:21.547Z,2.50
2018-03-16T11:34:24.077Z,2.30
2018-03-16T11:35:27.358Z,2.40
2018-03-16T11:36:30.614Z,2.40
2018-03-16T11:37:33.147Z,2.30
2018-03-16T11:38:36.386Z,2.30
2018-03-16T11:39:38.919Z,2.40
2018-03-16T11:40:41.426Z,2.40
2018-03-16T11:41:43.942Z,2.40
2018-03-16T11:42:46.438Z,2.40
2018-03-16T11:43:49.747Z,2.40
2018-03-16T11:44:52.243Z,2.40
2018-03-16T11:45:54.751Z,2.40
2018-03-16T11:46:57.250Z,2.40
2018-03-16T11:47:59.744Z,2.40
2018-03-16T11:49:02.274Z,2.30
2018-03-16T11:50:04.796Z,2.40
2018-03-16T11:51:07.330Z,2.40
2018-03-16T11:52:09.970Z,2.30
2018-03-16T11:53:12.753Z,2.30
2018-03-16T11:54:15.285Z,2.30
2018-03-16T11:55:18.566Z,2.30
2018-03-16T11:56:21.080Z,2.30
2018-03-16T11:57:24.304Z,2.30
2018-03-16T11:58:26.805Z,2.30
2018-03-16T11:59:30.124Z,2.20
2018-03-16T12:00:32.630Z,2.20
2018-03-16T12:01:35.139Z,2.30
2018-03-16T12:02:38.401Z,2.30
2018-03-16T12:03:40.905Z,2.30
2018-03-16T12:04:44.170Z,2.50
2018-03-16T12:05:46.688Z,2.40
2018-03-16T12:06:49.228Z,2.30
2018-03-16T12:07:52.482Z,2.20
2018-03-16T12:08:54.979Z,2.20
2018-03-16T12:09:58.376Z,2.20
2018-03-16T12:11:01.666Z,2.30
2018-03-16T12:12:04.925Z,2.20
2018-03-16T12:13:07.454Z,2.30
2018-03-16T12:14:10.116Z,2.20
2018-03-16T12:15:12.842Z,2.20
2018-03-16T12:16:15.377Z,2.20
2018-03-16T12:17:17.891Z,2.20
2018-03-16T12:18:21.899Z,2.20
2018-03-16T12:19:24.399Z,2.20
2018-03-16T12:20:27.801Z,2.30
2018-03-16T12:21:30.299Z,2.20
2018-03-16T12:22:32.792Z,2.30
2018-03-16T12:23:35.289Z,2.20
2018-03-16T12:24:38.557Z,2.20
2018-03-16T12:25:41.087Z,2.10
2018-03-16T12:26:43.599Z,2.10
2018-03-16T12:27:46.107Z,2.10
2018-03-16T12:28:50.014Z,2.20
2018-03-16T12:29:51.157Z,2.10
2018-03-16T12:30:53.718Z,2.00
2018-03-16T12:31:56.240Z,2.00
2018-03-16T12:32:58.768Z,2.10
2018-03-16T12:34:01.277Z,2.10
2018-03-16T12:35:03.786Z,2.20
2018-03-16T12:36:07.061Z,2.10
2018-03-16T12:37:09.556Z,2.10
2018-03-16T12:38:12.150Z,2.10
2018-03-16T12:39:14.667Z,2.10
2018-03-16T12:40:17.186Z,2.00
2018-03-16T12:41:19.693Z,2.10
2018-03-16T12:42:23.036Z,2.00
2018-03-16T12:43:25.538Z,2.00
2018-03-16T12:44:28.046Z,2.00
2018-03-16T12:45:30.540Z,2.00
2018-03-16T12:46:33.068Z,1.90
2018-03-16T12:47:35.582Z,1.90
2018-03-16T12:48:38.147Z,2.00
2018-03-16T12:49:41.413Z,2.00
2018-03-16T12:50:43.903Z,1.90
2018-03-16T12:51:47.169Z,1.90
2018-03-16T12:52:49.672Z,1.90
2018-03-16T12:53:52.186Z,1.90
2018-03-16T12:54:54.699Z,1.90
2018-03-16T12:55:57.973Z,1.90
2018-03-16T12:57:01.256Z,1.90
2018-03-16T12:58:03.765Z,1.90
2018-03-16T12:59:06.330Z,1.90
2018-03-16T13:00:08.842Z,1.80
2018-03-16T13:01:11.381Z,1.80
2018-03-16T13:02:13.907Z,1.80
2018-03-16T13:03:16.444Z,1.80
2018-03-16T13:04:18.987Z,1.90
2018-03-16T13:05:21.499Z,2.00
2018-03-16T13:06:24.008Z,2.00
2018-03-16T13:07:27.287Z,2.00
2018-03-16T13:08:31.062Z,2.00
2018-03-16T13:09:33.597Z,2.00
2018-03-16T13:10:36.106Z,2.00
2018-03-16T13:11:39.415Z,2.00
2018-03-16T13:12:42.681Z,2.10
2018-03-16T13:13:45.206Z,2.10
2018-03-16T13:14:47.728Z,2.10
2018-03-16T13:15:50.220Z,2.10
2018-03-16T13:16:53.510Z,2.00
2018-03-16T13:17:56.796Z,1.90
2018-03-16T13:19:00.107Z,1.90
2018-03-16T13:20:02.624Z,1.80
2018-03-16T13:21:05.124Z,1.90
2018-03-16T13:22:08.396Z,1.70
2018-03-16T13:23:11.031Z,1.70
2018-03-16T13:24:13.568Z,1.70
2018-03-16T13:25:16.857Z,1.90
2018-03-16T13:26:19.371Z,1.90
2018-03-16T13:27:21.906Z,2.00
2018-03-16T13:28:24.437Z,1.90
2018-03-16T13:29:26.964Z,1.90
2018-03-16T13:30:29.544Z,1.90
2018-03-16T13:31:32.040Z,1.90
2018-03-16T13:32:34.536Z,1.80
2018-03-16T13:33:37.037Z,1.80
2018-03-16T13:34:39.542Z,1.80
2018-03-16T13:35:42.066Z,1.90
2018-03-16T13:36:44.600Z,1.90
2018-03-16T13:37:47.094Z,1.80
2018-03-16T13:38:50.384Z,1.80
2018-03-16T13:39:53.670Z,1.80
2018-03-16T13:40:56.960Z,1.80
2018-03-16T13:42:00.223Z,1.90
2018-03-16T13:43:02.725Z,1.90
2018-03-16T13:44:06.019Z,1.80
2018-03-16T13:45:08.525Z,1.80
2018-03-16T13:46:11.085Z,1.70
2018-03-16T13:47:13.655Z,1.70
2018-03-16T13:48:16.318Z,1.70
2018-03-16T13:49:18.844Z,1.70
2018-03-16T13:50:21.356Z,1.80
2018-03-16T13:51:23.879Z,1.60
2018-03-16T13:52:27.209Z,1.70
2018-03-16T13:53:29.735Z,1.70
2018-03-16T13:54:32.264Z,1.70
2018-03-16T13:55:34.761Z,1.70
2018-03-16T13:56:37.270Z,1.80
2018-03-16T13:57:39.783Z,1.80
2018-03-16T13:58:42.332Z,1.70
2018-03-16T13:59:44.857Z,1.70
2018-03-16T14:00:47.347Z,1.60
2018-03-16T14:01:50.633Z,1.60
2018-03-16T14:02:53.940Z,1.50
2018-03-16T14:03:57.247Z,1.50
2018-03-16T14:04:59.756Z,1.50
2018-03-16T14:06:02.275Z,1.50
2018-03-16T14:07:04.793Z,1.50
2018-03-16T14:08:07.301Z,1.50
2018-03-16T14:09:09.836Z,1.50